createdAt,value
2018-05-10T00:00:44.145Z,75.18
2018-05-10T00:01:44.143Z,75.76
2018-05-10T00:02:44.146Z,75.70
2018-05-10T00:03:44.148Z,75.32
2018-05-10T00:04:44.143Z,75.32
2018-05-10T00:05:44.145Z,75.57
2018-05-10T00:06:44.140Z,75.70
2018-05-10T00:07:44.170Z,75.51
2018-05-10T00:08:44.141Z,75.28
2018-05-10T00:09:44.139Z,75.70
2018-05-10T00:10:44.139Z,76.08
2018-05-10T00:11:44.138Z,75.70
2018-05-10T00:12:44.139Z,75.89
2018-05-10T00:13:44.138Z,76.04
2018-05-10T00:14:44.136Z,76.14
2018-05-10T00:15:44.137Z,75.95
2018-05-10T00:16:44.137Z,75.85
2018-05-10T00:17:44.136Z,76.04
2018-05-10T00:18:44.136Z,75.95
2018-05-10T00:19:44.135Z,75.95
2018-05-10T00:20:44.138Z,75.85
2018-05-10T00:22:44.134Z,76.81
2018-05-10T00:23:44.134Z,76.52
2018-05-10T00:24:44.140Z,76.23
2018-05-10T00:25:44.132Z,76.42
2018-05-10T00:26:44.131Z,76.42
2018-05-10T00:27:44.132Z,76.90
2018-05-10T00:28:44.132Z,76.71
2018-05-10T00:29:44.130Z,76.71
2018-05-10T00:30:44.129Z,76.90
2018-05-10T00:31:44.129Z,76.71
2018-05-10T00:32:44.128Z,76.71
2018-05-10T00:33:44.128Z,77.47
2018-05-10T00:34:44.129Z,76.42
2018-05-10T00:35:44.356Z,76.62
2018-05-10T00:36:44.130Z,77.38
2018-05-10T00:37:44.126Z,77.38
2018-05-10T00:38:44.125Z,77.47
2018-05-10T00:39:44.125Z,77.38
2018-05-10T00:40:44.124Z,77.57
2018-05-10T00:41:44.128Z,77.72
2018-05-10T00:42:44.123Z,78.30
2018-05-10T00:43:44.124Z,77.57
2018-05-10T00:44:44.123Z,77.82
2018-05-10T00:45:44.119Z,78.30
2018-05-10T00:46:44.120Z,78.30
2018-05-10T00:47:44.121Z,78.77
2018-05-10T00:48:44.119Z,78.67
2018-05-10T00:49:44.119Z,78.49
2018-05-10T00:50:44.119Z,79.06
2018-05-10T00:51:44.118Z,79.25
2018-05-10T00:52:44.119Z,79.06
2018-05-10T00:53:44.116Z,79.25
2018-05-10T00:54:44.115Z,79.06
2018-05-10T00:55:44.117Z,79.25
2018-05-10T00:56:44.116Z,78.86
2018-05-10T00:57:44.114Z,79.35
2018-05-10T00:58:44.114Z,79.15
2018-05-10T00:59:44.112Z,79.25
2018-05-10T01:00:44.113Z,78.77
2018-05-10T01:01:44.111Z,78.77
2018-05-10T01:02:44.112Z,79.06
2018-05-10T01:03:44.108Z,78.86
2018-05-10T01:04:44.173Z,78.96
2018-05-10T01:05:44.108Z,78.96
2018-05-10T01:06:44.107Z,78.67
2018-05-10T01:07:44.107Z,78.96
2018-05-10T01:08:44.406Z,78.67
2018-05-10T01:09:44.104Z,78.10
2018-05-10T01:10:44.104Z,78.77
2018-05-10T01:11:44.104Z,78.39
2018-05-10T01:12:44.109Z,78.86
2018-05-10T01:13:44.103Z,78.58
2018-05-10T01:14:44.102Z,78.49
2018-05-10T01:15:44.101Z,78.39
2018-05-10T01:16:44.102Z,78.77
2018-05-10T01:17:44.100Z,79.06
2018-05-10T01:18:44.099Z,79.35
2018-05-10T01:19:44.099Z,79.06
2018-05-10T01:20:44.098Z,79.44
2018-05-10T01:21:44.096Z,79.35
2018-05-10T01:22:44.100Z,79.63
2018-05-10T01:23:44.096Z,79.53
2018-05-10T01:24:44.096Z,79.15
2018-05-10T01:25:44.092Z,79.53
2018-05-10T01:26:44.093Z,79.25
2018-05-10T01:27:44.092Z,78.96
2018-05-10T01:28:44.092Z,78.86
2018-05-10T01:29:44.095Z,78.96
2018-05-10T01:30:44.093Z,78.39
2018-05-10T01:31:44.089Z,78.67
2018-05-10T01:32:44.088Z,78.58
2018-05-10T01:33:44.087Z,78.20
2018-05-10T01:34:44.086Z,78.10
2018-05-10T01:35:44.085Z,77.72
2018-05-10T01:36:44.085Z,78.01
2018-05-10T01:37:44.124Z,78.01
2018-05-10T01:38:44.084Z,77.72
2018-05-10T01:39:44.082Z,77.62
2018-05-10T01:40:44.083Z,77.91
2018-05-10T01:41:44.079Z,77.53
2018-05-10T01:42:44.082Z,78.10
2018-05-10T01:43:44.079Z,78.30
2018-05-10T01:44:44.080Z,77.91
2018-05-10T01:45:44.077Z,78.10
2018-05-10T01:46:44.077Z,78.30
2018-05-10T01:47:44.075Z,78.30
2018-05-10T01:48:44.075Z,78.86
2018-05-10T01:49:44.077Z,78.49
2018-05-10T01:50:44.074Z,78.67
2018-05-10T01:51:44.073Z,78.58
2018-05-10T01:52:44.072Z,78.58
2018-05-10T01:53:44.071Z,78.96
2018-05-10T01:54:44.070Z,78.49
2018-05-10T01:55:44.071Z,78.77
2018-05-10T01:56:44.068Z,78.58
2018-05-10T01:57:44.070Z,78.67
2018-05-10T01:58:44.066Z,78.86
2018-05-10T01:59:44.079Z,78.10
2018-05-10T02:00:44.065Z,78.10
2018-05-10T02:01:44.063Z,78.20
2018-05-10T02:02:44.062Z,78.01
2018-05-10T02:03:44.061Z,77.25
2018-05-10T02:04:44.064Z,76.96
2018-05-10T02:05:44.109Z,77.15
2018-05-10T02:06:44.058Z,77.15
2018-05-10T02:07:44.059Z,77.25
2018-05-10T02:08:44.059Z,77.06
2018-05-10T02:09:44.057Z,77.06
2018-05-10T02:10:44.055Z,77.06
2018-05-10T02:11:44.055Z,77.06
2018-05-10T02:12:44.057Z,77.25
2018-05-10T02:13:44.053Z,77.06
2018-05-10T02:14:44.106Z,76.96
2018-05-10T02:15:44.051Z,76.39
2018-05-10T02:16:44.050Z,76.48
2018-05-10T02:17:44.049Z,76.39
2018-05-10T02:18:44.052Z,76.39
2018-05-10T02:19:44.049Z,76.39
2018-05-10T02:20:44.048Z,76.48
2018-05-10T02:21:44.046Z,76.67
2018-05-10T02:22:44.044Z,76.67
2018-05-10T02:23:44.059Z,76.57
2018-05-10T02:24:44.045Z,76.86
2018-05-10T02:25:44.041Z,77.34
2018-05-10T02:26:44.041Z,77.44
2018-05-10T02:27:44.040Z,77.62
2018-05-10T02:28:44.040Z,78.01
2018-05-10T02:29:44.055Z,77.72
2018-05-10T02:30:44.038Z,77.72
2018-05-10T02:31:44.037Z,78.39
2018-05-10T02:32:44.041Z,78.10
2018-05-10T02:33:44.039Z,78.96
2018-05-10T02:34:44.034Z,79.02
2018-05-10T02:35:44.033Z,79.11
2018-05-10T02:36:44.035Z,79.49
2018-05-10T02:37:44.031Z,79.68
2018-05-10T02:38:44.030Z,79.68
2018-05-10T02:39:44.035Z,80.16
2018-05-10T02:40:44.029Z,80.07
2018-05-10T02:41:44.029Z,80.54
2018-05-10T02:42:44.027Z,80.54
2018-05-10T02:43:44.026Z,81.21
2018-05-10T02:44:44.025Z,80.92
2018-05-10T02:45:44.026Z,81.59
2018-05-10T02:46:44.021Z,81.49
2018-05-10T02:47:44.021Z,81.21
2018-05-10T02:48:44.018Z,81.40
2018-05-10T02:49:44.019Z,81.21
2018-05-10T02:50:44.017Z,81.21
2018-05-10T02:51:44.017Z,81.49
2018-05-10T02:52:44.019Z,81.36
2018-05-10T02:53:44.015Z,81.59
2018-05-10T02:54:44.014Z,81.78
2018-05-10T02:55:44.014Z,81.12
2018-05-10T02:56:44.010Z,81.40
2018-05-10T02:57:44.016Z,81.21
2018-05-10T02:58:44.011Z,81.30
2018-05-10T02:59:44.007Z,80.92
2018-05-10T03:00:44.006Z,81.30
2018-05-10T03:01:44.004Z,80.26
2018-05-10T03:02:44.010Z,79.59
2018-05-10T03:03:44.001Z,79.06
2018-05-10T03:04:44.001Z,79.06
2018-05-10T03:05:43.998Z,78.86
2018-05-10T03:06:44.001Z,78.01
2018-05-10T03:07:43.996Z,77.44
2018-05-10T03:08:43.995Z,77.25
2018-05-10T03:09:43.995Z,77.06
2018-05-10T03:10:43.994Z,77.34
2018-05-10T03:11:43.992Z,76.77
2018-05-10T03:12:43.992Z,76.39
2018-05-10T03:13:43.993Z,76.48
2018-05-10T03:14:43.987Z,76.10
2018-05-10T03:15:43.987Z,75.95
2018-05-10T03:16:43.989Z,76.23
2018-05-10T03:17:43.986Z,76.14
2018-05-10T03:18:43.985Z,76.04
2018-05-10T03:19:43.989Z,76.33
2018-05-10T03:20:43.984Z,75.85
2018-05-10T03:21:43.979Z,75.85
2018-05-10T03:22:43.978Z,75.95
2018-05-10T03:23:43.979Z,76.33
2018-05-10T03:24:43.978Z,76.23
2018-05-10T03:25:43.976Z,76.62
2018-05-10T03:26:43.975Z,76.42
2018-05-10T03:27:43.976Z,76.14
2018-05-10T03:28:43.977Z,75.85
2018-05-10T03:29:43.974Z,75.76
2018-05-10T03:30:43.974Z,75.76
2018-05-10T03:31:43.972Z,75.95
2018-05-10T03:32:43.971Z,75.37
2018-05-10T03:33:43.973Z,76.14
2018-05-10T03:34:43.970Z,75.85
2018-05-10T03:35:43.968Z,75.95
2018-05-10T03:36:43.967Z,76.04
2018-05-10T03:37:43.970Z,76.23
2018-05-10T03:38:43.966Z,76.52
2018-05-10T03:39:43.966Z,77.47
2018-05-10T03:40:43.965Z,76.90
2018-05-10T03:41:43.965Z,76.23
2018-05-10T03:42:43.968Z,76.33
2018-05-10T03:43:43.963Z,76.71
2018-05-10T03:44:43.962Z,76.81
2018-05-10T03:45:43.960Z,76.52
2018-05-10T03:46:43.960Z,76.90
2018-05-10T03:47:43.959Z,76.42
2018-05-10T03:48:43.957Z,75.85
2018-05-10T03:49:43.957Z,75.57
2018-05-10T03:50:43.956Z,75.37
2018-05-10T03:51:43.956Z,75.76
2018-05-10T03:52:43.957Z,75.66
2018-05-10T03:53:43.954Z,75.47
2018-05-10T03:54:43.953Z,75.66
2018-05-10T03:55:43.953Z,75.28
2018-05-10T03:56:43.953Z,75.66
2018-05-10T03:57:43.951Z,74.80
2018-05-10T03:58:43.951Z,75.18
2018-05-10T03:59:43.951Z,74.80
2018-05-10T04:00:43.950Z,74.52
2018-05-10T04:01:43.948Z,75.18
2018-05-10T04:02:43.948Z,75.09
2018-05-10T04:03:43.949Z,75.37
2018-05-10T04:04:43.949Z,75.47
2018-05-10T04:05:43.945Z,74.04
2018-05-10T04:06:43.946Z,74.61
2018-05-10T04:07:43.945Z,74.61
2018-05-10T04:08:43.945Z,74.04
2018-05-10T04:09:43.942Z,74.61
2018-05-10T04:10:43.941Z,74.13
2018-05-10T04:11:43.943Z,74.42
2018-05-10T04:12:43.942Z,74.17
2018-05-10T04:13:43.941Z,74.32
2018-05-10T04:14:43.941Z,74.61
2018-05-10T04:15:43.940Z,74.90
2018-05-10T04:16:43.939Z,74.32
2018-05-10T04:17:43.939Z,74.55
2018-05-10T04:18:43.937Z,74.32
2018-05-10T04:19:43.938Z,74.13
2018-05-10T04:20:43.936Z,74.32
2018-05-10T04:21:43.936Z,74.32
2018-05-10T04:22:43.935Z,74.23
2018-05-10T04:23:43.935Z,74.42
2018-05-10T04:24:43.935Z,74.23
2018-05-10T04:25:43.933Z,74.84
2018-05-10T04:26:43.934Z,74.84
2018-05-10T04:27:43.934Z,75.32
2018-05-10T04:28:43.933Z,74.84
2018-05-10T04:29:43.932Z,75.42
2018-05-10T04:30:43.932Z,74.65
2018-05-10T04:31:43.930Z,74.65
2018-05-10T04:32:43.932Z,74.93
2018-05-10T04:33:43.931Z,74.84
2018-05-10T04:34:43.929Z,74.46
2018-05-10T04:35:43.990Z,74.17
2018-05-10T04:36:43.929Z,74.08
2018-05-10T04:37:43.928Z,73.79
2018-05-10T04:38:43.929Z,73.69
2018-05-10T04:39:43.926Z,73.22
2018-05-10T04:40:43.927Z,72.93
2018-05-10T04:41:43.929Z,72.64
2018-05-10T04:42:43.927Z,73.03
2018-05-10T04:43:43.926Z,72.07
2018-05-10T04:44:43.926Z,72.93
2018-05-10T04:45:43.924Z,73.12
2018-05-10T04:46:43.925Z,72.64
2018-05-10T04:47:43.925Z,73.41
2018-05-10T04:48:43.924Z,72.83
2018-05-10T04:49:43.924Z,72.93
2018-05-10T04:50:43.923Z,72.93
2018-05-10T04:51:43.923Z,73.12
2018-05-10T04:52:43.924Z,72.83
2018-05-10T04:53:43.926Z,73.07
2018-05-10T04:54:44.006Z,72.74
2018-05-10T04:55:43.923Z,73.25
2018-05-10T04:56:43.921Z,73.07
2018-05-10T04:57:43.921Z,72.93
2018-05-10T04:58:43.922Z,72.07
2018-05-10T04:59:43.921Z,72.74
2018-05-10T05:00:43.923Z,72.97
2018-05-10T05:01:43.922Z,72.11
2018-05-10T05:02:43.920Z,71.44
2018-05-10T05:03:43.921Z,71.92
2018-05-10T05:04:43.922Z,71.53
2018-05-10T05:05:43.919Z,71.25
2018-05-10T05:06:43.920Z,70.77
2018-05-10T05:07:43.920Z,70.01
2018-05-10T05:08:44.008Z,70.77
2018-05-10T05:09:43.921Z,70.20
2018-05-10T05:10:43.919Z,70.10
2018-05-10T05:11:43.920Z,70.48
2018-05-10T05:12:43.920Z,71.44
2018-05-10T05:13:43.919Z,71.25
2018-05-10T05:14:43.919Z,70.29
2018-05-10T05:15:43.920Z,70.10
2018-05-10T05:16:43.932Z,70.20
2018-05-10T05:17:43.918Z,69.82
2018-05-10T05:18:43.919Z,69.95
2018-05-10T05:19:43.919Z,70.14
2018-05-10T05:20:43.920Z,69.76
2018-05-10T05:21:43.919Z,69.76
2018-05-10T05:22:43.918Z,69.95
2018-05-10T05:23:43.920Z,69.76
2018-05-10T05:24:43.919Z,69.37
2018-05-10T05:25:43.919Z,69.56
2018-05-10T05:26:43.921Z,69.37
2018-05-10T05:27:43.920Z,69.85
2018-05-10T05:28:43.921Z,69.37
2018-05-10T05:29:43.921Z,69.31
2018-05-10T05:30:43.921Z,69.98
2018-05-10T05:31:43.922Z,69.50
2018-05-10T05:32:44.002Z,69.47
2018-05-10T05:33:43.922Z,69.18
2018-05-10T05:34:43.922Z,68.80
2018-05-10T05:35:43.927Z,68.70
2018-05-10T05:36:43.923Z,68.99
2018-05-10T05:37:43.923Z,69.50
2018-05-10T05:38:43.924Z,69.41
2018-05-10T05:39:43.925Z,69.79
2018-05-10T05:40:43.926Z,69.50
2018-05-10T05:41:43.925Z,69.21
2018-05-10T05:42:43.925Z,69.12
2018-05-10T05:43:43.926Z,69.21
2018-05-10T05:44:43.931Z,68.84
2018-05-10T05:45:43.928Z,68.93
2018-05-10T05:46:43.928Z,68.93
2018-05-10T05:47:43.932Z,68.64
2018-05-10T05:48:43.930Z,67.82
2018-05-10T05:49:43.930Z,68.29
2018-05-10T05:50:43.930Z,68.20
2018-05-10T05:51:43.932Z,67.24
2018-05-10T05:52:43.931Z,67.72
2018-05-10T05:53:43.932Z,68.01
2018-05-10T05:54:43.934Z,68.39
2018-05-10T05:55:43.935Z,69.06
2018-05-10T05:56:43.935Z,68.87
2018-05-10T05:57:43.934Z,68.87
2018-05-10T05:58:43.937Z,69.15
2018-05-10T05:59:43.937Z,68.77
2018-05-10T06:00:43.993Z,68.20
2018-05-10T06:01:43.939Z,67.82
2018-05-10T06:02:43.939Z,66.32
2018-05-10T06:03:43.942Z,66.70
2018-05-10T06:04:43.943Z,68.13
2018-05-10T06:05:43.943Z,67.56
2018-05-10T06:06:43.947Z,67.27
2018-05-10T06:07:43.946Z,67.27
2018-05-10T06:08:43.952Z,66.03
2018-05-10T06:09:43.948Z,64.98
2018-05-10T06:10:43.950Z,65.17
2018-05-10T06:11:43.950Z,64.98
2018-05-10T06:12:43.952Z,65.55
2018-05-10T06:13:43.953Z,66.35
2018-05-10T06:14:43.954Z,66.74
2018-05-10T06:15:43.991Z,67.31
2018-05-10T06:16:43.958Z,66.64
2018-05-10T06:17:43.960Z,64.72
2018-05-10T06:18:43.962Z,65.14
2018-05-10T06:19:43.965Z,64.66
2018-05-10T06:20:43.963Z,65.05
2018-05-10T06:21:43.964Z,65.05
2018-05-10T06:22:43.965Z,64.09
2018-05-10T06:23:43.968Z,62.84
2018-05-10T06:24:43.976Z,62.77
2018-05-10T06:25:44.037Z,63.06
2018-05-10T06:26:43.999Z,63.16
2018-05-10T06:27:43.976Z,62.39
2018-05-10T06:28:43.978Z,63.32
2018-05-10T06:29:43.982Z,63.13
2018-05-10T06:30:43.981Z,63.45
2018-05-10T06:31:43.983Z,62.49
2018-05-10T06:32:43.987Z,62.20
2018-05-10T06:33:43.987Z,62.30
2018-05-10T06:34:43.990Z,62.59
2018-05-10T06:35:43.999Z,62.42
2018-05-10T06:36:43.996Z,62.52
2018-05-10T06:37:43.997Z,62.71
2018-05-10T06:38:44.000Z,62.33
2018-05-10T06:39:44.002Z,62.04
2018-05-10T06:40:44.005Z,62.13
2018-05-10T06:41:44.010Z,61.66
2018-05-10T06:42:44.009Z,61.46
2018-05-10T06:43:44.012Z,60.89
2018-05-10T06:44:44.015Z,61.27
2018-05-10T06:45:44.017Z,61.18
2018-05-10T06:46:44.032Z,60.99
2018-05-10T06:47:44.022Z,60.99
2018-05-10T06:48:44.046Z,62.13
2018-05-10T06:49:44.027Z,61.94
2018-05-10T06:50:44.029Z,62.45
2018-05-10T06:51:44.032Z,61.02
2018-05-10T06:52:44.035Z,58.71
2018-05-10T06:53:44.038Z,58.81
2018-05-10T06:54:44.120Z,58.23
2018-05-10T06:55:44.044Z,58.62
2018-05-10T06:56:44.047Z,59.86
2018-05-10T06:57:44.049Z,57.85
2018-05-10T06:58:44.052Z,56.98
2018-05-10T06:59:44.057Z,57.95
2018-05-10T07:00:44.064Z,58.81
2018-05-10T07:01:44.062Z,58.23
2018-05-10T07:02:44.065Z,58.52
2018-05-10T07:03:44.068Z,57.01
2018-05-10T07:04:44.072Z,57.81
2018-05-10T07:05:44.075Z,56.14
2018-05-10T07:06:44.081Z,54.14
2018-05-10T07:07:44.086Z,53.21
2018-05-10T07:08:44.093Z,49.99
2018-05-10T07:09:44.128Z,48.59
2018-05-10T07:10:44.103Z,47.55
2018-05-10T07:11:44.110Z,45.07
2018-05-10T07:12:44.115Z,43.45
2018-05-10T07:13:44.135Z,43.47
2018-05-10T07:14:44.129Z,41.73
2018-05-10T07:15:44.137Z,42.39
2018-05-10T07:16:44.142Z,43.37
2018-05-10T07:17:44.148Z,43.54
2018-05-10T07:18:44.159Z,43.45
2018-05-10T07:19:44.160Z,44.01
2018-05-10T07:20:44.168Z,44.56
2018-05-10T07:21:44.175Z,44.54
2018-05-10T07:22:44.182Z,46.15
2018-05-10T07:23:44.187Z,47.60
2018-05-10T07:24:44.192Z,46.83
2018-05-10T07:25:44.199Z,46.83
2018-05-10T07:26:44.205Z,46.45
2018-05-10T07:27:44.211Z,45.97
2018-05-10T07:28:44.218Z,46.15
2018-05-10T07:29:44.224Z,46.64
2018-05-10T07:30:44.231Z,47.80
2018-05-10T07:31:44.237Z,47.22
2018-05-10T07:32:44.245Z,48.76
2018-05-10T07:33:44.250Z,47.80
2018-05-10T07:34:44.270Z,46.25
2018-05-10T07:35:44.263Z,46.64
2018-05-10T07:36:44.273Z,47.80
2018-05-10T07:37:44.278Z,47.60
2018-05-10T07:38:44.284Z,46.93
2018-05-10T07:39:44.293Z,48.74
2018-05-10T07:40:44.298Z,49.70
2018-05-10T07:41:44.306Z,48.93
2018-05-10T07:42:44.311Z,50.09
2018-05-10T07:43:44.319Z,50.06
2018-05-10T07:44:44.325Z,50.09
2018-05-10T07:45:44.331Z,51.14
2018-05-10T07:46:44.337Z,52.40
2018-05-10T07:47:44.345Z,50.27
2018-05-10T07:48:44.354Z,49.68
2018-05-10T07:49:44.357Z,49.22
2018-05-10T07:50:44.364Z,50.09
2018-05-10T07:51:44.371Z,49.87
2018-05-10T07:52:44.378Z,49.77
2018-05-10T07:53:44.385Z,49.96
2018-05-10T07:54:44.391Z,50.93
2018-05-10T07:55:44.396Z,51.02
2018-05-10T07:56:44.435Z,51.48
2018-05-10T07:57:44.428Z,51.19
2018-05-10T07:58:44.519Z,51.21
2018-05-10T07:59:44.431Z,50.01
2018-05-10T08:00:44.462Z,48.76
2018-05-10T08:01:44.467Z,50.01
2018-05-10T08:02:44.518Z,49.73
2018-05-10T08:03:44.491Z,50.09
2018-05-10T08:04:44.539Z,49.68
2018-05-10T08:05:44.495Z,49.58
2018-05-10T08:06:44.494Z,50.09
2018-05-10T08:07:44.481Z,49.99
2018-05-10T08:08:44.488Z,49.05
2018-05-10T08:09:44.494Z,49.15
2018-05-10T08:10:44.503Z,48.97
2018-05-10T08:11:44.512Z,48.79
2018-05-10T08:12:44.520Z,46.59
2018-05-10T08:13:44.530Z,44.85
2018-05-10T08:14:44.534Z,45.65
2018-05-10T08:15:44.542Z,45.40
2018-05-10T08:16:44.551Z,44.36
2018-05-10T08:17:44.561Z,41.94
2018-05-10T08:18:44.571Z,44.09
2018-05-10T08:19:44.983Z,43.32
2018-05-10T08:20:44.591Z,42.65
2018-05-10T08:21:44.601Z,44.15
2018-05-10T08:22:44.612Z,44.15
2018-05-10T08:23:44.625Z,45.11
2018-05-10T08:24:44.633Z,45.38
2018-05-10T08:25:44.644Z,43.98
2018-05-10T08:26:44.831Z,43.20
2018-05-10T08:27:44.669Z,42.89
2018-05-10T08:28:44.674Z,44.49
2018-05-10T08:29:44.688Z,45.07
2018-05-10T08:30:44.693Z,45.92
2018-05-10T08:31:44.705Z,45.75
2018-05-10T08:32:44.713Z,44.10
2018-05-10T08:33:44.723Z,45.72
2018-05-10T08:34:44.734Z,46.18
2018-05-10T08:35:44.743Z,48.28
2018-05-10T08:36:44.769Z,48.28
2018-05-10T08:37:44.762Z,48.57
2018-05-10T08:38:44.770Z,48.83
2018-05-10T08:39:44.779Z,49.79
2018-05-10T08:40:44.786Z,49.96
2018-05-10T08:41:44.792Z,51.02
2018-05-10T08:42:44.802Z,51.09
2018-05-10T08:43:44.809Z,51.48
2018-05-10T08:44:44.817Z,52.15
2018-05-10T08:45:44.823Z,51.67
2018-05-10T08:46:44.830Z,52.12
2018-05-10T08:47:44.837Z,52.32
2018-05-10T08:48:44.974Z,53.09
2018-05-10T08:49:44.858Z,52.87
2018-05-10T08:50:44.857Z,52.58
2018-05-10T08:51:45.031Z,53.54
2018-05-10T08:52:44.870Z,52.58
2018-05-10T08:53:44.876Z,52.39
2018-05-10T08:54:44.880Z,52.39
2018-05-10T08:55:44.906Z,52.39
2018-05-10T08:56:44.893Z,53.06
2018-05-10T08:57:44.897Z,53.06
2018-05-10T08:58:44.903Z,51.26
2018-05-10T08:59:44.911Z,49.12
2018-05-10T09:00:44.914Z,47.63
2018-05-10T09:01:44.922Z,46.03
2018-05-10T09:02:44.929Z,43.45
2018-05-10T09:03:44.942Z,41.93
2018-05-10T09:04:44.947Z,40.78
2018-05-10T09:05:44.956Z,41.00
2018-05-10T09:06:44.965Z,40.15
2018-05-10T09:07:44.975Z,38.91
2018-05-10T09:08:44.986Z,39.51
2018-05-10T09:09:45.001Z,37.28
2018-05-10T09:10:45.008Z,37.40
2018-05-10T09:11:45.020Z,34.88
2018-05-10T09:12:45.034Z,35.13
2018-05-10T09:13:45.045Z,35.41
2018-05-10T09:14:45.057Z,36.26
2018-05-10T09:15:45.069Z,37.67
2018-05-10T09:16:45.080Z,38.71
2018-05-10T09:17:45.090Z,39.16
2018-05-10T09:18:45.101Z,40.80
2018-05-10T09:19:45.112Z,40.66
2018-05-10T09:20:45.122Z,41.24
2018-05-10T09:21:45.131Z,42.69
2018-05-10T09:22:45.141Z,43.00
2018-05-10T09:23:45.152Z,43.04
2018-05-10T09:24:45.161Z,41.91
2018-05-10T09:25:45.170Z,41.05
2018-05-10T09:26:45.179Z,40.69
2018-05-10T09:27:45.190Z,40.71
2018-05-10T09:28:45.203Z,40.34
2018-05-10T09:29:45.213Z,39.69
2018-05-10T09:30:45.227Z,37.65
2018-05-10T09:31:45.238Z,37.85
2018-05-10T09:32:45.251Z,39.09
2018-05-10T09:33:45.329Z,39.62
2018-05-10T09:34:45.275Z,39.90
2018-05-10T09:35:45.287Z,41.54
2018-05-10T09:36:45.301Z,41.23
2018-05-10T09:37:45.308Z,41.88
2018-05-10T09:38:45.318Z,42.56
2018-05-10T09:39:45.331Z,41.91
2018-05-10T09:40:45.341Z,42.10
2018-05-10T09:41:45.350Z,41.15
2018-05-10T09:42:45.363Z,42.21
2018-05-10T09:43:45.373Z,43.35
2018-05-10T09:44:45.448Z,44.12
2018-05-10T09:45:45.395Z,44.10
2018-05-10T09:46:45.777Z,44.10
2018-05-10T09:47:45.511Z,44.73
2018-05-10T09:48:45.467Z,42.82
2018-05-10T09:49:45.436Z,41.94
2018-05-10T09:50:45.464Z,42.70
2018-05-10T09:51:45.679Z,42.02
2018-05-10T09:52:45.657Z,41.88
2018-05-10T09:53:45.476Z,43.04
2018-05-10T09:54:45.487Z,44.18
2018-05-10T09:55:45.496Z,44.83
2018-05-10T09:56:45.505Z,46.66
2018-05-10T09:57:45.514Z,47.82
2018-05-10T09:58:45.522Z,47.72
2018-05-10T09:59:45.608Z,48.66
2018-05-10T10:00:45.541Z,49.05
2018-05-10T10:01:45.548Z,47.80
2018-05-10T10:02:45.559Z,48.66
2018-05-10T10:03:45.565Z,48.83
2018-05-10T10:04:45.574Z,46.71
2018-05-10T10:05:45.581Z,45.92
2018-05-10T10:06:45.587Z,46.38
2018-05-10T10:07:45.596Z,47.15
2018-05-10T10:08:45.602Z,48.69
2018-05-10T10:09:45.608Z,49.65
2018-05-10T10:10:45.615Z,49.74
2018-05-10T10:11:45.717Z,49.91
2018-05-10T10:12:45.630Z,49.91
2018-05-10T10:13:45.637Z,50.30
2018-05-10T10:14:45.642Z,50.76
2018-05-10T10:15:45.673Z,51.53
2018-05-10T10:16:45.655Z,51.91
2018-05-10T10:17:45.659Z,52.10
2018-05-10T10:18:45.673Z,51.72
2018-05-10T10:19:45.672Z,52.58
2018-05-10T10:20:45.678Z,53.35
2018-05-10T10:21:45.683Z,54.02
2018-05-10T10:22:45.689Z,54.47
2018-05-10T10:23:45.915Z,55.15
2018-05-10T10:24:45.973Z,55.24
2018-05-10T10:25:45.704Z,55.63
2018-05-10T10:26:45.710Z,56.21
2018-05-10T10:27:45.715Z,56.21
2018-05-10T10:28:45.721Z,56.18
2018-05-10T10:29:45.724Z,56.37
2018-05-10T10:30:45.729Z,56.68
2018-05-10T10:31:45.735Z,56.68
2018-05-10T10:32:45.740Z,56.21
2018-05-10T10:33:45.852Z,56.49
2018-05-10T10:34:45.749Z,56.30
2018-05-10T10:35:45.918Z,56.49
2018-05-10T10:36:45.763Z,56.68
2018-05-10T10:37:45.762Z,56.98
2018-05-10T10:38:45.768Z,56.88
2018-05-10T10:39:45.772Z,56.98
2018-05-10T10:40:45.776Z,57.65
2018-05-10T10:41:45.781Z,57.93
2018-05-10T10:42:45.786Z,57.75
2018-05-10T10:43:45.791Z,58.22
2018-05-10T10:44:45.795Z,57.65
2018-05-10T10:45:45.800Z,57.55
2018-05-10T10:46:45.804Z,58.03
2018-05-10T10:47:45.808Z,58.61
2018-05-10T10:48:45.813Z,58.99
2018-05-10T10:49:45.816Z,58.10
2018-05-10T10:50:45.826Z,57.33
2018-05-10T10:51:45.825Z,57.14
2018-05-10T10:52:45.877Z,57.33
2018-05-10T10:53:45.910Z,57.43
2018-05-10T10:54:45.839Z,57.52
2018-05-10T10:55:45.844Z,55.99
2018-05-10T10:56:45.847Z,55.60
2018-05-10T10:57:45.957Z,55.57
2018-05-10T10:58:45.857Z,56.46
2018-05-10T10:59:45.859Z,56.15
2018-05-10T11:00:45.865Z,56.53
2018-05-10T11:01:45.927Z,56.53
2018-05-10T11:02:45.871Z,56.63
2018-05-10T11:03:45.879Z,57.11
2018-05-10T11:04:45.880Z,57.88
2018-05-10T11:05:45.883Z,57.88
2018-05-10T11:06:45.891Z,58.36
2018-05-10T11:07:45.893Z,57.88
2018-05-10T11:08:45.902Z,57.78
2018-05-10T11:09:45.900Z,58.07
2018-05-10T11:10:45.907Z,57.68
2018-05-10T11:11:45.906Z,58.55
2018-05-10T11:12:45.911Z,58.96
2018-05-10T11:13:45.951Z,58.96
2018-05-10T11:14:45.916Z,58.39
2018-05-10T11:15:45.936Z,58.87
2018-05-10T11:16:45.928Z,58.22
2018-05-10T11:17:45.932Z,58.22
2018-05-10T11:18:45.934Z,57.36
2018-05-10T11:19:45.938Z,56.43
2018-05-10T11:20:45.976Z,57.10
2018-05-10T11:21:45.946Z,55.98
2018-05-10T11:22:45.950Z,54.94
2018-05-10T11:23:45.957Z,54.17
2018-05-10T11:24:45.962Z,53.02
2018-05-10T11:25:45.965Z,51.79
2018-05-10T11:26:45.973Z,51.70
2018-05-10T11:27:45.979Z,52.47
2018-05-10T11:28:45.984Z,52.37
2018-05-10T11:29:46.027Z,52.47
2018-05-10T11:30:45.997Z,52.27
2018-05-10T11:31:46.003Z,52.49
2018-05-10T11:32:46.009Z,53.94
2018-05-10T11:33:46.333Z,53.09
2018-05-10T11:34:46.021Z,52.42
2018-05-10T11:35:46.028Z,52.55
2018-05-10T11:36:46.034Z,52.06
2018-05-10T11:37:46.042Z,51.32
2018-05-10T11:38:46.050Z,50.16
2018-05-10T11:39:46.057Z,50.06
2018-05-10T11:40:46.088Z,49.96
2018-05-10T11:41:46.070Z,51.25
2018-05-10T11:42:46.079Z,50.09
2018-05-10T11:43:46.162Z,49.99
2018-05-10T11:44:46.097Z,50.59
2018-05-10T11:45:46.102Z,49.82
2018-05-10T11:46:46.110Z,49.05
2018-05-10T11:47:46.119Z,48.57
2018-05-10T11:48:46.167Z,47.80
2018-05-10T11:49:46.137Z,48.86
2018-05-10T11:50:46.145Z,50.21
2018-05-10T11:51:46.154Z,48.76
2018-05-10T11:52:46.162Z,47.89
2018-05-10T11:53:46.176Z,48.86
2018-05-10T11:54:46.229Z,48.54
2018-05-10T11:55:46.189Z,49.02
2018-05-10T11:56:46.201Z,49.90
2018-05-10T11:57:46.207Z,49.68
2018-05-10T11:58:46.215Z,49.87
2018-05-10T11:59:46.224Z,50.06
2018-05-10T12:00:46.232Z,50.26
2018-05-10T12:01:46.240Z,50.04
2018-05-10T12:02:46.249Z,50.71
2018-05-10T12:03:46.257Z,52.25
2018-05-10T12:04:46.266Z,51.36
2018-05-10T12:05:46.272Z,51.56
2018-05-10T12:06:46.282Z,52.42
2018-05-10T12:07:46.291Z,52.23
2018-05-10T12:08:46.296Z,52.71
2018-05-10T12:09:46.303Z,52.13
2018-05-10T12:10:46.311Z,53.09
2018-05-10T12:11:46.318Z,53.09
2018-05-10T12:12:46.326Z,52.73
2018-05-10T12:13:46.334Z,52.73
2018-05-10T12:14:46.344Z,52.06
2018-05-10T12:15:46.348Z,52.16
2018-05-10T12:16:46.355Z,51.97
2018-05-10T12:17:46.362Z,52.83
2018-05-10T12:18:46.369Z,51.29
2018-05-10T12:19:46.376Z,51.29
2018-05-10T12:20:46.384Z,50.32
2018-05-10T12:21:46.390Z,51.03
2018-05-10T12:22:46.397Z,50.16
2018-05-10T12:23:46.404Z,50.84
2018-05-10T12:24:46.413Z,51.58
2018-05-10T12:25:46.419Z,51.68
2018-05-10T12:26:46.426Z,53.05
2018-05-10T12:27:46.435Z,53.17
2018-05-10T12:28:46.441Z,52.40
2018-05-10T12:29:46.448Z,50.18
2018-05-10T12:30:46.457Z,50.38
2018-05-10T12:31:46.463Z,49.70
2018-05-10T12:32:46.472Z,50.54
2018-05-10T12:33:46.513Z,50.35
2018-05-10T12:34:46.487Z,49.87
2018-05-10T12:35:46.495Z,49.96
2018-05-10T12:36:46.502Z,50.64
2018-05-10T12:37:46.508Z,50.54
2018-05-10T12:38:46.517Z,49.68
2018-05-10T12:39:46.524Z,48.81
2018-05-10T12:40:46.532Z,49.87
2018-05-10T12:41:46.539Z,50.06
2018-05-10T12:42:46.547Z,51.22
2018-05-10T12:43:46.555Z,50.47
2018-05-10T12:44:46.564Z,50.47
2018-05-10T12:45:46.571Z,49.82
2018-05-10T12:46:46.576Z,50.21
2018-05-10T12:47:46.584Z,49.80
2018-05-10T12:48:46.616Z,49.48
2018-05-10T12:49:46.600Z,50.52
2018-05-10T12:50:46.607Z,50.49
2018-05-10T12:51:46.616Z,50.69
2018-05-10T12:52:46.623Z,51.07
2018-05-10T12:53:46.629Z,51.34